Time;durP1;ratioP1;P1;durP2;ratioP2;P2;SDS_P1;SDS_P2;PMS_P1;PMS_P2;Temp;Humidity;BMP_temperature;BMP_pressure;BME280_temperature;BME280_humidity;BME280_pressure;Samples;Min_cycle;Max_cycle;Signal;HPM_P1;HPM_P2
2021/08/12 00:00:55;;;;;;;;;;;;;;;16.38;81.41;101955.38;5070326;28;19936;-59
2021/08/12 00:03:22;;;;;;;;;;;;;;;16.36;81.66;101959.97;5051177;28;19974;-59
2021/08/12 00:05:48;;;;;;;;;;;;;;;16.29;81.70;101950.75;5069733;28;19963;-58
2021/08/12 00:08:15;;;;;;;;;;;;;;;16.23;81.66;101945.88;5073969;28;19924;-58
2021/08/12 00:10:42;;;;;;;;;;;;;;;16.22;81.59;101947.69;5074235;28;19928;-59
2021/08/12 00:13:08;;;;;;;;;;;;;;;16.12;82.05;101943.16;5069681;28;19929;-59
2021/08/12 00:15:35;;;;;;;;;;;;;;;16.07;81.83;101940.81;5072658;28;19947;-58
2021/08/12 00:18:02;;;;;;;;;;;;;;;16.11;81.83;101942.28;5055868;28;19959;-58
2021/08/12 00:20:28;;;;;;;;;;;;;;;16.03;81.77;101941.97;5074585;28;19924;-57
2021/08/12 00:22:55;;;;;;;;;;;;;;;16.05;81.90;101934.78;5056428;28;19924;-58
2021/08/12 00:25:22;;;;;;;;;;;;;;;16.09;81.82;101930.94;5073838;28;20403;-58
2021/08/12 00:27:48;;;;;;;;;;;;;;;16.02;82.18;101938.50;5053462;28;19928;-58
2021/08/12 00:30:15;;;;;;;;;;;;;;;16.04;81.71;101931.25;5070488;28;20025;-58
2021/08/12 00:32:41;;;;;;;;;;;;;;;15.97;82.30;101932.66;5055778;28;19932;-46
2021/08/12 00:35:08;;;;;;;;;;;;;;;15.87;82.56;101934.28;5073913;28;19970;-50
2021/08/12 00:37:35;;;;;;;;;;;;;;;15.91;82.45;101929.59;5056121;28;19924;-46
2021/08/12 00:40:02;;;;;;;;;;;;;;;15.82;82.73;101936.41;5056415;28;19982;-48
2021/08/12 00:42:29;;;;;;;;;;;;;;;15.82;82.97;101933.75;5056396;28;19928;-47
2021/08/12 00:44:55;;;;;;;;;;;;;;;15.80;83.21;101933.84;5073595;28;19947;-46
2021/08/12 00:47:22;;;;;;;;;;;;;;;15.92;82.45;101940.09;5070913;28;19939;-46
2021/08/12 00:49:49;;;;;;;;;;;;;;;15.89;82.46;101937.66;5070817;28;20280;-47
2021/08/12 00:52:15;;;;;;;;;;;;;;;15.76;82.78;101932.34;5072983;28;19971;-51
2021/08/12 00:54:42;;;;;;;;;;;;;;;15.72;82.56;101928.22;5073298;28;19982;-58
2021/08/12 00:57:09;;;;;;;;;;;;;;;15.66;83.07;101928.63;5055984;28;19928;-57
2021/08/12 00:59:36;;;;;;;;;;;;;;;15.65;83.12;101922.50;5055343;28;19925;-57
2021/08/12 01:02:09;;;;;;;;;;;;;;;15.61;83.51;101921.00;5055137;28;19928;-57
2021/08/12 01:04:37;;;;;;;;;;;;;;;15.60;83.44;101915.78;5071583;28;19924;-57
2021/08/12 01:07:11;;;;;;;;;;;;;;;15.65;83.21;101911.00;5071108;28;19928;-47
2021/08/12 01:09:41;;;;;;;;;;;;;;;15.57;83.26;101914.22;5053553;28;19970;-49
2021/08/12 01:12:10;;;;;;;;;;;;;;;15.59;83.63;101920.25;5072938;28;19970;-49
2021/08/12 01:14:39;;;;;;;;;;;;;;;15.55;83.78;101918.75;5055871;28;19928;-59
2021/08/12 01:17:07;;;;;;;;;;;;;;;15.58;83.40;101918.53;5054601;28;19925;-58
2021/08/12 01:19:36;;;;;;;;;;;;;;;15.52;83.56;101927.78;5056272;28;19933;-58
2021/08/12 01:22:06;;;;;;;;;;;;;;;15.44;83.66;101930.09;5071487;28;19924;-58
2021/08/12 01:24:33;;;;;;;;;;;;;;;15.51;83.19;101926.06;5053011;28;19932;-58
2021/08/12 01:27:04;;;;;;;;;;;;;;;15.44;83.52;101927.44;5054967;28;19974;-51
2021/08/12 01:29:37;;;;;;;;;;;;;;;15.42;83.81;101924.06;5070390;28;19932;-52
2021/08/12 01:32:07;;;;;;;;;;;;;;;15.44;83.31;101926.63;5072514;28;19924;-46
2021/08/12 01:34:53;;;;;;;;;;;;;;;15.36;83.76;101922.66;5054997;28;20395;-48
2021/08/12 01:37:19;;;;;;;;;;;;;;;15.37;83.72;101932.31;5071676;28;19925;-46
2021/08/12 01:39:46;;;;;;;;;;;;;;;15.35;83.32;101933.38;5054359;28;20377;-48
2021/08/12 01:42:13;;;;;;;;;;;;;;;15.26;84.31;101928.72;5071739;28;19924;-58
2021/08/12 01:44:39;;;;;;;;;;;;;;;15.09;85.26;101936.00;5068864;28;19947;-58
2021/08/12 01:47:06;;;;;;;;;;;;;;;15.10;84.47;101935.03;5053795;28;20338;-58
2021/08/12 01:49:33;;;;;;;;;;;;;;;15.17;84.77;101936.34;5072552;28;19928;-57
2021/08/12 01:52:00;;;;;;;;;;;;;;;15.16;84.86;101933.78;5052094;28;19924;-51
2021/08/12 01:54:26;;;;;;;;;;;;;;;15.18;83.94;101929.25;5057853;28;19971;-52
2021/08/12 01:56:53;;;;;;;;;;;;;;;15.17;83.97;101924.88;5056690;28;19925;-48
2021/08/12 01:59:20;;;;;;;;;;;;;;;15.18;84.27;101929.25;5070000;28;19924;-51
2021/08/12 02:01:47;;;;;;;;;;;;;;;15.16;84.38;101933.78;5051473;28;19924;-47
2021/08/12 02:04:14;;;;;;;;;;;;;;;15.15;84.80;101934.75;5068645;28;19924;-49
2021/08/12 02:06:41;;;;;;;;;;;;;;;15.12;84.80;101934.94;5072427;28;19924;-57
2021/08/12 02:09:08;;;;;;;;;;;;;;;15.10;84.76;101935.03;5072363;28;19967;-57
2021/08/12 02:11:35;;;;;;;;;;;;;;;15.02;85.00;101922.34;5037304;28;19936;-57
2021/08/12 02:14:01;;;;;;;;;;;;;;;15.01;84.84;101903.88;5066231;28;19939;-57
2021/08/12 02:16:28;;;;;;;;;;;;;;;15.02;85.19;101905.56;5071501;28;19933;-57
2021/08/12 02:18:55;;;;;;;;;;;;;;;14.96;85.05;101913.94;5053925;28;19925;-57
2021/08/12 02:21:23;;;;;;;;;;;;;;;15.03;85.04;101917.88;5034696;28;19929;-57
2021/08/12 02:24:00;;;;;;;;;;;;;;;15.10;84.65;101908.56;5068778;28;19986;-57
2021/08/12 02:26:30;;;;;;;;;;;;;;;15.14;84.34;101914.50;5050831;28;19928;-45
2021/08/12 02:28:56;;;;;;;;;;;;;;;15.09;84.10;101921.91;5068892;28;20337;-45
2021/08/12 02:31:23;;;;;;;;;;;;;;;15.03;84.92;101915.22;5053104;28;19932;-46
2021/08/12 02:33:50;;;;;;;;;;;;;;;15.03;84.58;101910.75;5050669;28;19924;-46
2021/08/12 02:36:16;;;;;;;;;;;;;;;15.06;84.56;101906.22;5050960;28;19928;-49
2021/08/12 02:38:43;;;;;;;;;;;;;;;15.02;84.97;101901.13;5053733;28;19924;-58
2021/08/12 02:41:11;;;;;;;;;;;;;;;14.99;85.01;101903.13;5054046;28;20320;-58
2021/08/12 02:43:39;;;;;;;;;;;;;;;14.94;85.13;101898.13;5050520;28;19924;-58
2021/08/12 02:46:05;;;;;;;;;;;;;;;14.97;84.88;101895.31;5052076;28;20417;-58
2021/08/12 02:48:32;;;;;;;;;;;;;;;14.94;84.93;101897.28;5071242;28;19929;-58
2021/08/12 02:50:59;;;;;;;;;;;;;;;14.91;84.86;101886.91;5071386;28;19986;-58
2021/08/12 02:53:26;;;;;;;;;;;;;;;14.96;85.08;101893.59;5052234;28;20015;-58
2021/08/12 02:55:53;;;;;;;;;;;;;;;14.91;85.51;101890.41;5071779;28;19959;-58
2021/08/12 02:58:19;;;;;;;;;;;;;;;14.93;85.73;101888.50;5053830;28;19959;-58
2021/08/12 03:00:46;;;;;;;;;;;;;;;14.97;85.63;101887.34;5070168;28;19982;-58
2021/08/12 03:03:13;;;;;;;;;;;;;;;14.96;86.11;101890.09;5036114;28;19932;-58
2021/08/12 03:05:40;;;;;;;;;;;;;;;14.90;86.18;101895.81;5054616;28;19963;-58
2021/08/12 03:08:07;;;;;;;;;;;;;;;14.90;86.11;101891.34;5070421;28;19932;-58
2021/08/12 03:10:33;;;;;;;;;;;;;;;14.92;85.66;101886.81;5069464;28;19939;-58
2021/08/12 03:13:00;;;;;;;;;;;;;;;14.91;86.19;101886.91;5053505;28;20436;-58
2021/08/12 03:15:27;;;;;;;;;;;;;;;14.91;86.10;101885.09;5069371;28;19963;-58
2021/08/12 03:17:53;;;;;;;;;;;;;;;14.87;85.94;101888.91;5071340;28;20391;-58
2021/08/12 03:20:25;;;;;;;;;;;;;;;14.82;86.80;101881.28;5071467;28;20554;-58
2021/08/12 03:22:52;;;;;;;;;;;;;;;14.81;86.46;101879.56;5052094;28;20015;-58
2021/08/12 03:25:19;;;;;;;;;;;;;;;14.81;86.66;101884.03;5033267;28;19925;-58
2021/08/12 03:27:46;;;;;;;;;;;;;;;14.83;87.21;101890.94;5052257;28;19978;-58
2021/08/12 03:30:13;;;;;;;;;;;;;;;14.84;86.72;101881.19;5068987;28;20295;-58
2021/08/12 03:32:39;;;;;;;;;;;;;;;14.85;86.63;101894.31;5052328;28;20425;-48
2021/08/12 03:35:06;;;;;;;;;;;;;;;14.85;86.27;101896.13;5070624;28;19993;-47
2021/08/12 03:37:33;;;;;;;;;;;;;;;14.86;86.52;101892.50;5070678;28;20287;-57
2021/08/12 03:39:59;;;;;;;;;;;;;;;14.76;85.97;101889.63;5054716;28;19925;-58
2021/08/12 03:42:26;;;;;;;;;;;;;;;14.78;85.99;101889.50;5058596;28;19924;-58
2021/08/12 03:44:53;;;;;;;;;;;;;;;14.67;85.99;101885.78;5076139;28;19924;-58
2021/08/12 03:47:20;;;;;;;;;;;;;;;14.62;86.30;101898.44;5075894;28;20395;-50
2021/08/12 03:49:46;;;;;;;;;;;;;;;14.64;86.44;101901.03;5075928;28;19977;-48
2021/08/12 03:52:13;;;;;;;;;;;;;;;14.57;86.20;101897.06;5076241;28;20318;-46
2021/08/12 03:54:39;;;;;;;;;;;;;;;14.50;86.29;101891.31;5054679;28;19932;-50
2021/08/12 03:57:06;;;;;;;;;;;;;;;14.58;86.08;101907.53;5071704;28;20322;-48
2021/08/12 03:59:33;;;;;;;;;;;;;;;14.53;85.26;101899.91;5075048;28;19924;-57
2021/08/12 04:02:00;;;;;;;;;;;;;;;14.62;85.13;101902.91;5057484;28;19931;-57
2021/08/12 04:04:27;;;;;;;;;;;;;;;14.60;85.47;101889.78;5074736;28;20027;-46
2021/08/12 04:06:54;;;;;;;;;;;;;;;14.57;85.82;101889.13;5056713;28;20015;-47
2021/08/12 04:09:20;;;;;;;;;;;;;;;14.58;87.06;101896.13;5072040;28;19925;-46
2021/08/12 04:11:47;;;;;;;;;;;;;;;14.50;87.33;101896.59;5074396;28;20011;-46
2021/08/12 04:14:14;;;;;;;;;;;;;;;14.41;87.35;101895.41;5056872;28;20378;-45
2021/08/12 04:16:40;;;;;;;;;;;;;;;14.36;87.45;101905.44;5072554;28;19929;-48
2021/08/12 04:19:09;;;;;;;;;;;;;;;14.33;87.08;101911.78;5073622;28;20279;-45
2021/08/12 04:21:35;;;;;;;;;;;;;;;14.42;86.94;101912.13;5075475;28;19935;-45
2021/08/12 04:24:02;;;;;;;;;;;;;;;14.39;87.03;101905.25;5074831;28;19939;-48
2021/08/12 04:26:28;;;;;;;;;;;;;;;14.41;86.80;101907.78;5057040;28;19932;-51
2021/08/12 04:28:56;;;;;;;;;;;;;;;14.48;86.61;101906.44;5074852;28;19939;-46
2021/08/12 04:31:23;;;;;;;;;;;;;;;14.43;86.98;101909.38;5074916;28;20318;-49
2021/08/12 04:33:49;;;;;;;;;;;;;;;14.42;86.44;101906.84;5055642;28;19925;-49
2021/08/12 04:36:16;;;;;;;;;;;;;;;14.40;86.35;101914.00;5074571;28;19958;-46
2021/08/12 04:38:43;;;;;;;;;;;;;;;14.42;86.72;101906.84;5074969;28;19947;-49
2021/08/12 04:41:09;;;;;;;;;;;;;;;14.35;86.90;101901.94;5074823;28;19969;-48
2021/08/12 04:43:36;;;;;;;;;;;;;;;14.42;86.20;101904.19;5057076;28;20344;-48
2021/08/12 04:46:03;;;;;;;;;;;;;;;14.34;86.85;101894.97;5071525;28;19925;-46
2021/08/12 04:48:30;;;;;;;;;;;;;;;14.33;86.98;101901.19;5072236;28;19932;-47
2021/08/12 04:50:57;;;;;;;;;;;;;;;14.30;87.70;101898.75;5052893;28;19936;-51
2021/08/12 04:53:23;;;;;;;;;;;;;;;14.36;87.72;101900.16;5079491;28;19924;-57
2021/08/12 04:55:50;;;;;;;;;;;;;;;14.34;87.35;101902.91;5094519;28;19934;-57
2021/08/12 04:58:16;;;;;;;;;;;;;;;14.42;87.39;101904.19;5092322;28;20027;-57
2021/08/12 05:00:43;;;;;;;;;;;;;;;14.37;87.27;101909.78;5094413;28;19924;-57
2021/08/12 05:03:10;;;;;;;;;;;;;;;14.36;87.59;101908.09;5093462;28;19950;-57
2021/08/12 05:05:37;;;;;;;;;;;;;;;14.34;87.55;101910.84;5074396;28;19977;-57
2021/08/12 05:08:04;;;;;;;;;;;;;;;14.36;87.52;101922.16;5074640;28;19931;-58
2021/08/12 05:10:31;;;;;;;;;;;;;;;14.35;87.45;101922.25;5056188;28;20349;-58
2021/08/12 05:12:57;;;;;;;;;;;;;;;14.35;87.92;101922.25;5069910;28;19932;-49
2021/08/12 05:15:24;;;;;;;;;;;;;;;14.43;87.80;101924.44;5073122;28;20353;-50
2021/08/12 05:17:51;;;;;;;;;;;;;;;14.42;87.64;101923.56;5074266;28;20354;-49
2021/08/12 05:20:17;;;;;;;;;;;;;;;14.44;87.36;101932.25;5053404;28;19929;-49
2021/08/12 05:22:44;;;;;;;;;;;;;;;14.45;87.63;101930.44;5071241;28;19977;-48
2021/08/12 05:25:11;;;;;;;;;;;;;;;14.56;87.30;101935.94;5072494;28;20276;-46
2021/08/12 05:27:38;;;;;;;;;;;;;;;14.47;87.89;101936.50;5070339;28;19931;-49
2021/08/12 05:30:05;;;;;;;;;;;;;;;14.46;88.46;101929.50;5053421;28;19932;-50
2021/08/12 05:32:32;;;;;;;;;;;;;;;14.47;87.93;101924.13;5073769;28;19964;-45
2021/08/12 05:34:58;;;;;;;;;;;;;;;14.51;88.38;101917.66;5074520;28;19931;-49
2021/08/12 05:37:25;;;;;;;;;;;;;;;14.56;88.45;101920.03;5037491;28;19924;-46
2021/08/12 05:39:52;;;;;;;;;;;;;;;14.60;88.35;101918.88;5035857;28;20327;-48
2021/08/12 05:42:18;;;;;;;;;;;;;;;14.60;88.50;101921.53;5070945;28;19978;-46
2021/08/12 05:44:45;;;;;;;;;;;;;;;14.67;88.99;101919.34;5070656;28;19928;-51
2021/08/12 05:47:15;;;;;;;;;;;;;;;14.75;89.45;101918.84;5052766;28;19933;-55
2021/08/12 05:49:42;;;;;;;;;;;;;;;14.81;89.10;101910.53;5055131;28;20398;-57
2021/08/12 05:52:08;;;;;;;;;;;;;;;14.88;89.18;101911.78;5072920;28;19950;-57
2021/08/12 05:54:35;;;;;;;;;;;;;;;14.95;89.24;101917.53;5071493;28;19928;-57
2021/08/12 05:57:02;;;;;;;;;;;;;;;15.03;89.77;101916.06;5071019;28;20612;-57
2021/08/12 05:59:28;;;;;;;;;;;;;;;15.11;89.74;101920.00;5072057;28;20430;-57
2021/08/12 06:01:55;;;;;;;;;;;;;;;15.18;90.16;101916.00;5071981;28;19924;-45
2021/08/12 06:04:22;;;;;;;;;;;;;;;15.27;90.15;101925.09;5071959;28;20429;-47
2021/08/12 06:06:48;;;;;;;;;;;;;;;15.37;89.48;101926.19;5072301;28;19924;-58
2021/08/12 06:09:15;;;;;;;;;;;;;;;15.44;89.07;101922.16;5071247;28;20346;-58
2021/08/12 06:11:41;;;;;;;;;;;;;;;15.53;89.20;101921.53;5072065;28;20411;-50
2021/08/12 06:14:08;;;;;;;;;;;;;;;15.63;89.06;101928.84;5072965;28;19933;-48
2021/08/12 06:16:35;;;;;;;;;;;;;;;15.74;89.41;101930.75;5072580;28;19928;-50
2021/08/12 06:19:02;;;;;;;;;;;;;;;15.83;89.52;101930.97;5073145;28;19974;-58
2021/08/12 06:21:28;;;;;;;;;;;;;;;15.94;88.75;101934.66;5073068;28;19931;-58
2021/08/12 06:23:55;;;;;;;;;;;;;;;16.07;88.17;101937.31;5055483;28;19969;-58
2021/08/12 06:26:22;;;;;;;;;;;;;;;16.20;87.61;101940.78;5072949;28;19931;-58
2021/08/12 06:28:50;;;;;;;;;;;;;;;16.30;87.62;101940.97;5038705;28;19974;-58
2021/08/12 06:31:18;;;;;;;;;;;;;;;16.41;87.41;101926.91;5053748;28;20326;-50
2021/08/12 06:33:45;;;;;;;;;;;;;;;16.55;86.77;101938.22;5069345;28;19929;-49
2021/08/12 06:36:11;;;;;;;;;;;;;;;16.70;85.19;101938.03;5071218;28;19925;-58
2021/08/12 06:38:43;;;;;;;;;;;;;;;16.83;84.82;101928.22;5072686;28;20022;-58
2021/08/12 06:41:09;;;;;;;;;;;;;;;16.95;84.54;101937.09;5055223;28;19932;-58
2021/08/12 06:43:36;;;;;;;;;;;;;;;17.09;83.61;101935.22;5072608;28;19924;-58
2021/08/12 06:46:03;;;;;;;;;;;;;;;17.18;82.45;101932.72;5052835;28;19924;-58
2021/08/12 06:48:30;;;;;;;;;;;;;;;17.34;81.80;101932.41;5053567;28;19931;-58
2021/08/12 06:50:56;;;;;;;;;;;;;;;17.43;81.07;101940.63;5073012;28;19951;-58
2021/08/12 06:53:23;;;;;;;;;;;;;;;17.55;81.25;101939.69;5072716;28;19935;-58
2021/08/12 06:55:50;;;;;;;;;;;;;;;17.68;80.97;101939.56;5060951;28;19956;-58
2021/08/12 06:58:16;;;;;;;;;;;;;;;17.84;80.20;101945.38;5037923;28;19978;-47
2021/08/12 07:00:43;;;;;;;;;;;;;;;18.01;79.87;101937.88;5071495;28;19925;-49
2021/08/12 07:03:10;;;;;;;;;;;;;;;18.17;79.53;101940.19;5070913;28;19975;-50
2021/08/12 07:05:37;;;;;;;;;;;;;;;18.31;78.72;101934.59;5050675;28;19924;-51
2021/08/12 07:08:05;;;;;;;;;;;;;;;18.47;76.89;101941.34;5070783;28;19928;-51
2021/08/12 07:10:32;;;;;;;;;;;;;;;18.62;76.74;101947.22;5072140;28;19924;-58
2021/08/12 07:12:58;;;;;;;;;;;;;;;18.77;75.95;101931.78;5072593;28;19986;-59
2021/08/12 07:15:25;;;;;;;;;;;;;;;18.94;75.86;101939.25;5073875;28;19931;-59
2021/08/12 07:17:52;;;;;;;;;;;;;;;19.09;73.69;101937.97;5076545;28;19964;-58
2021/08/12 07:20:19;;;;;;;;;;;;;;;19.25;74.61;101939.31;5041870;28;19932;-58
2021/08/12 07:22:46;;;;;;;;;;;;;;;19.41;73.54;101934.41;5076591;28;19978;-59
2021/08/12 07:25:13;;;;;;;;;;;;;;;19.61;72.84;101933.66;5058989;28;20015;-59
2021/08/12 07:27:40;;;;;;;;;;;;;;;19.74;71.35;101937.78;5075890;28;19928;-58
2021/08/12 07:30:07;;;;;;;;;;;;;;;19.87;72.84;101942.09;5076314;28;19932;-59
2021/08/12 07:32:34;;;;;;;;;;;;;;;20.00;70.81;101936.50;5075741;28;20333;-51
2021/08/12 07:35:00;;;;;;;;;;;;;;;20.16;70.97;101936.81;5076520;28;20265;-59
2021/08/12 07:37:27;;;;;;;;;;;;;;;20.30;71.14;101924.06;5075827;28;19932;-59
2021/08/12 07:39:54;;;;;;;;;;;;;;;20.51;68.63;101923.97;5076116;28;19929;-50
2021/08/12 07:42:20;;;;;;;;;;;;;;;20.67;69.46;101923.41;5075021;28;20342;-48
2021/08/12 07:44:47;;;;;;;;;;;;;;;20.78;68.91;101920.63;5071080;28;20426;-59
2021/08/12 07:47:14;;;;;;;;;;;;;;;20.96;68.43;101923.44;5073760;28;19932;-52
2021/08/12 07:49:40;;;;;;;;;;;;;;;21.12;68.28;101920.19;5073882;28;19990;-51
2021/08/12 07:52:07;;;;;;;;;;;;;;;21.34;66.85;101915.50;5072412;28;19974;-50
2021/08/12 07:54:35;;;;;;;;;;;;;;;21.42;64.40;101916.44;5075573;28;19928;-52
2021/08/12 07:57:01;;;;;;;;;;;;;;;21.58;62.85;101920.34;5075151;28;20371;-48
2021/08/12 07:59:28;;;;;;;;;;;;;;;21.75;63.73;101916.06;5075077;28;19924;-47
2021/08/12 08:01:55;;;;;;;;;;;;;;;21.93;61.29;101926.84;5075568;28;19925;-48
2021/08/12 08:04:22;;;;;;;;;;;;;;;21.83;60.44;101921.53;5057868;28;20038;-51
2021/08/12 08:06:48;;;;;;;;;;;;;;;22.04;61.18;101923.94;5035435;28;19925;-51
2021/08/12 08:09:15;;;;;;;;;;;;;;;22.22;60.64;101920.47;5055312;28;19924;-51
2021/08/12 08:11:42;;;;;;;;;;;;;;;22.39;59.47;101927.72;5041818;28;20291;-49
2021/08/12 08:14:08;;;;;;;;;;;;;;;22.63;59.32;101928.94;5071495;28;19931;-48
2021/08/12 08:16:35;;;;;;;;;;;;;;;22.74;57.93;101925.19;5057091;28;20299;-52
2021/08/12 08:19:02;;;;;;;;;;;;;;;22.95;57.79;101920.34;5075134;28;19924;-59
2021/08/12 08:21:29;;;;;;;;;;;;;;;23.13;57.52;101923.00;5074820;28;19948;-59
2021/08/12 08:23:55;;;;;;;;;;;;;;;23.36;56.77;101919.81;5075203;28;19931;-50
2021/08/12 08:26:22;;;;;;;;;;;;;;;23.59;56.03;101922.78;5074095;28;19924;-48
2021/08/12 08:28:49;;;;;;;;;;;;;;;23.75;54.95;101921.19;5074600;28;19990;-51
2021/08/12 08:31:15;;;;;;;;;;;;;;;23.92;54.47;101930.19;5055664;28;19974;-59
2021/08/12 08:33:42;;;;;;;;;;;;;;;24.01;53.77;101923.84;5054108;28;19924;-59
2021/08/12 08:36:09;;;;;;;;;;;;;;;24.26;54.40;101926.59;5074604;28;19963;-59
2021/08/12 08:38:35;;;;;;;;;;;;;;;24.36;53.36;101924.59;5074816;28;19929;-58
2021/08/12 08:41:02;;;;;;;;;;;;;;;24.67;52.79;101915.09;5040292;28;20432;-49
2021/08/12 08:43:32;;;;;;;;;;;;;;;24.90;51.67;101924.16;5053690;28;19932;-49
2021/08/12 08:45:59;;;;;;;;;;;;;;;24.93;51.12;101923.00;5071958;28;19925;-51
2021/08/12 08:48:25;;;;;;;;;;;;;;;24.98;50.03;101910.72;5073683;28;19928;-49
2021/08/12 08:50:52;;;;;;;;;;;;;;;25.21;49.27;101923.47;5069801;28;20379;-50
2021/08/12 08:53:19;;;;;;;;;;;;;;;25.36;48.91;101926.34;5055538;28;19974;-59
2021/08/12 08:55:46;;;;;;;;;;;;;;;25.48;48.61;101918.72;5037566;28;19933;-59
2021/08/12 08:58:13;;;;;;;;;;;;;;;25.62;46.75;101917.19;5068610;28;20010;-52
2021/08/12 09:00:40;;;;;;;;;;;;;;;25.38;46.98;101916.22;5071894;28;20429;-49
2021/08/12 09:03:07;;;;;;;;;;;;;;;25.54;47.73;101911.81;5070456;28;20069;-59
2021/08/12 09:05:34;;;;;;;;;;;;;;;25.54;46.89;101919.91;5069378;28;19998;-59
2021/08/12 09:08:01;;;;;;;;;;;;;;;25.64;47.25;101923.22;5056442;28;19974;-59
2021/08/12 09:10:28;;;;;;;;;;;;;;;26.08;47.46;101921.88;5056856;28;19924;-59
2021/08/12 09:12:55;;;;;;;;;;;;;;;26.18;45.78;101929.72;5056487;28;19974;-59
2021/08/12 09:15:22;;;;;;;;;;;;;;;26.29;45.60;101929.34;5072236;28;19924;-52
2021/08/12 09:17:53;;;;;;;;;;;;;;;26.59;46.60;101922.22;5070907;28;20022;-52
2021/08/12 09:20:21;;;;;;;;;;;;;;;26.86;45.56;101932.66;5074117;28;20408;-50
2021/08/12 09:22:49;;;;;;;;;;;;;;;27.16;44.41;101920.91;5073930;28;20390;-51
2021/08/12 09:25:19;;;;;;;;;;;;;;;27.29;44.44;101922.94;5073817;28;20323;-49
2021/08/12 09:27:46;;;;;;;;;;;;;;;27.20;43.21;101917.81;5051423;28;19925;-49
2021/08/12 09:30:14;;;;;;;;;;;;;;;27.29;43.64;101931.03;5059641;28;19971;-59
2021/08/12 09:32:47;;;;;;;;;;;;;;;27.49;42.92;101922.44;5072748;28;20299;-49
2021/08/12 09:35:21;;;;;;;;;;;;;;;27.76;42.53;101915.53;5071961;28;20391;-49
2021/08/12 09:37:48;;;;;;;;;;;;;;;28.05;42.22;101913.00;5071731;28;20734;-50
2021/08/12 09:40:15;;;;;;;;;;;;;;;28.10;42.66;101916.78;5071729;28;19925;-52
2021/08/12 09:42:55;;;;;;;;;;;;;;;28.18;40.81;101915.81;5054604;28;19951;-59
2021/08/12 09:45:22;;;;;;;;;;;;;;;28.46;40.75;101921.31;5072240;28;19928;-59
2021/08/12 09:47:49;;;;;;;;;;;;;;;28.34;40.13;101910.16;5070808;28;19925;-53
2021/08/12 09:50:26;;;;;;;;;;;;;;;28.14;39.99;101914.53;5051002;28;19924;-59
2021/08/12 09:52:53;;;;;;;;;;;;;;;28.32;39.35;101914.13;5070715;28;19925;-59
2021/08/12 09:55:21;;;;;;;;;;;;;;;28.54;41.46;101916.78;5053798;28;19925;-59
2021/08/12 09:57:53;;;;;;;;;;;;;;;28.81;40.57;101907.09;5050571;28;19982;-59
2021/08/12 10:00:23;;;;;;;;;;;;;;;28.40;39.30;101905.00;5053907;28;20287;-59
2021/08/12 10:02:50;;;;;;;;;;;;;;;28.55;39.70;101907.66;5052143;28;19931;-59
2021/08/12 10:05:17;;;;;;;;;;;;;;;28.38;40.79;101912.50;5051456;28;20015;-59
2021/08/12 10:07:44;;;;;;;;;;;;;;;28.81;39.93;101916.03;5070871;28;19978;-59
2021/08/12 10:10:16;;;;;;;;;;;;;;;29.10;38.73;101918.75;5052618;28;19932;-59
2021/08/12 10:12:46;;;;;;;;;;;;;;;29.27;39.07;101912.03;5065609;28;19955;-58
2021/08/12 10:15:14;;;;;;;;;;;;;;;29.13;38.61;101911.06;5051812;28;19932;-58
2021/08/12 10:17:42;;;;;;;;;;;;;;;29.24;38.42;101914.25;5071958;28;19924;-57
2021/08/12 10:20:10;;;;;;;;;;;;;;;29.44;38.26;101909.81;5071323;28;20325;-57
2021/08/12 10:22:38;;;;;;;;;;;;;;;29.56;37.94;101911.97;5053667;28;20268;-57
2021/08/12 10:25:05;;;;;;;;;;;;;;;29.57;39.99;101919.06;5053523;28;19925;-58
2021/08/12 10:27:32;;;;;;;;;;;;;;;29.63;38.48;101910.13;5069648;28;19935;-58
2021/08/12 10:29:59;;;;;;;;;;;;;;;29.60;38.11;101913.22;5031509;28;19959;-58
2021/08/12 10:32:26;;;;;;;;;;;;;;;29.65;36.95;101913.47;5069855;28;19924;-62
2021/08/12 10:34:52;;;;;;;;;;;;;;;29.93;37.42;101920.72;5052706;28;19932;-60
2021/08/12 10:37:19;;;;;;;;;;;;;;;29.84;37.67;101912.69;5070378;28;19924;-60
2021/08/12 10:39:46;;;;;;;;;;;;;;;29.45;38.19;101911.50;5051718;28;19971;-59
2021/08/12 10:42:13;;;;;;;;;;;;;;;29.77;37.22;101911.03;5069306;28;20395;-59
2021/08/12 10:44:39;;;;;;;;;;;;;;;29.79;38.62;101903.50;5048707;28;20302;-59
2021/08/12 10:47:15;;;;;;;;;;;;;;;30.16;37.57;101904.91;5051631;28;19932;-59
2021/08/12 10:49:42;;;;;;;;;;;;;;;30.30;36.96;101905.78;5049869;28;20034;-59
2021/08/12 10:52:10;;;;;;;;;;;;;;;30.26;37.01;101892.84;5068828;28;20025;-59
2021/08/12 10:54:38;;;;;;;;;;;;;;;30.70;36.45;101891.41;5052032;28;19978;-59
2021/08/12 10:57:17;;;;;;;;;;;;;;;30.99;36.41;101892.00;5070186;28;19925;-59
2021/08/12 10:59:43;;;;;;;;;;;;;;;31.13;34.87;101888.28;5051145;28;19925;-50
2021/08/12 11:02:22;;;;;;;;;;;;;;;30.29;35.80;101893.25;5070506;28;19925;-51
2021/08/12 11:04:50;;;;;;;;;;;;;;;30.54;36.46;101892.66;5063283;28;19924;-52
2021/08/12 11:07:35;;;;;;;;;;;;;;;30.99;36.29;101897.44;5071855;28;19931;-52
2021/08/12 11:10:03;;;;;;;;;;;;;;;31.13;36.56;101895.59;5082030;28;20333;-59
2021/08/12 11:12:49;;;;;;;;;;;;;;;31.03;35.82;101896.00;5073552;28;19928;-59
2021/08/12 11:15:15;;;;;;;;;;;;;;;30.76;35.60;101890.59;5070056;28;20391;-59
2021/08/12 11:17:52;;;;;;;;;;;;;;;30.75;36.71;101897.06;5072186;28;19963;-59
2021/08/12 11:20:32;;;;;;;;;;;;;;;31.08;37.41;101898.94;5070647;28;19978;-59
2021/08/12 11:23:17;;;;;;;;;;;;;;;31.21;35.36;101898.09;5071709;28;20299;-59
2021/08/12 11:25:52;;;;;;;;;;;;;;;31.14;36.76;101900.81;5064390;28;19970;-59
2021/08/12 11:28:42;;;;;;;;;;;;;;;31.55;34.88;101898.81;5068940;28;19940;-59
2021/08/12 11:31:18;;;;;;;;;;;;;;;31.95;35.08;101893.19;5045344;28;19939;-58
2021/08/12 11:33:45;;;;;;;;;;;;;;;31.97;35.45;101885.69;5032972;28;19928;-59
2021/08/12 11:36:22;;;;;;;;;;;;;;;32.19;35.06;101891.63;5068961;28;19932;-59
2021/08/12 11:38:53;;;;;;;;;;;;;;;32.25;34.15;101886.38;5051079;28;19928;-59
2021/08/12 11:41:20;;;;;;;;;;;;;;;32.53;32.72;101878.59;5070649;28;19924;-59
2021/08/12 11:43:47;;;;;;;;;;;;;;;32.29;33.15;101874.00;5070507;28;19925;-59
2021/08/12 11:46:14;;;;;;;;;;;;;;;32.37;36.07;101881.88;5071962;28;19936;-59
2021/08/12 11:48:41;;;;;;;;;;;;;;;32.16;33.01;101880.34;5069693;28;20105;-59
2021/08/12 11:51:08;;;;;;;;;;;;;;;32.07;34.33;101878.91;5067792;28;19928;-59
2021/08/12 11:53:41;;;;;;;;;;;;;;;32.00;34.88;101882.50;5070904;28;19932;-59
2021/08/12 11:56:19;;;;;;;;;;;;;;;32.13;33.19;101884.28;5053282;28;20264;-52
2021/08/12 11:58:50;;;;;;;;;;;;;;;32.24;33.74;101884.69;5052768;28;19933;-51
2021/08/12 12:01:20;;;;;;;;;;;;;;;32.74;33.75;101890.19;5051147;28;19925;-53
2021/08/12 12:03:48;;;;;;;;;;;;;;;32.56;34.70;101890.09;5073609;28;19932;-48
2021/08/12 12:06:50;;;;;;;;;;;;;;;32.40;34.31;101889.59;5055946;28;20307;-53
2021/08/12 12:09:20;;;;;;;;;;;;;;;32.16;34.95;101881.19;4972405;28;20471;-51
2021/08/12 12:11:55;;;;;;;;;;;;;;;31.76;35.16;101886.81;5055014;28;20287;-51
2021/08/12 12:14:32;;;;;;;;;;;;;;;31.63;35.72;101887.72;5069339;28;19929;-58
2021/08/12 12:17:25;;;;;;;;;;;;;;;31.31;36.87;101879.44;5051317;28;19924;-58
2021/08/12 12:20:10;;;;;;;;;;;;;;;31.52;36.61;101891.94;5062599;28;20012;-58
2021/08/12 12:22:39;;;;;;;;;;;;;;;31.67;36.04;101879.97;5056821;28;19931;-59
2021/08/12 12:25:07;;;;;;;;;;;;;;;31.41;34.68;101886.31;5056586;28;19932;-58
2021/08/12 12:27:34;;;;;;;;;;;;;;;31.80;36.20;101882.63;5056082;28;20343;-58
2021/08/12 12:30:11;;;;;;;;;;;;;;;31.95;35.76;101884.22;5073821;28;20040;-59
2021/08/12 12:32:38;;;;;;;;;;;;;;;32.16;35.28;101880.34;5072084;28;19932;-59
2021/08/12 12:35:06;;;;;;;;;;;;;;;32.16;34.50;101874.91;5073702;28;19970;-59
2021/08/12 12:37:36;;;;;;;;;;;;;;;32.12;35.22;101871.78;5071145;28;20280;-60
2021/08/12 12:40:04;;;;;;;;;;;;;;;32.30;34.36;101881.94;5057115;28;19929;-60